Change the Weather History Date:

Thursday, October 31, 2013

  Actual Average Record
Temperature  
Mean Temperature 58 °F -  
Max Temperature 62 °F 55 °F 72 °F (1979)
Min Temperature 55 °F 36 °F 22 °F (1992)
Degree Days  
Heating Degree Days 6    
Growing Degree Days 8 (Base 50)    
Moisture  
Dew Point 56 °F    
Average Humidity 89    
Maximum Humidity 92    
Minimum Humidity 84    
Precipitation  
Precipitation 0.15 in - - ()
Sea Level Pressure  
Sea Level Pressure 29.45 in    
Wind  
Wind Speed 7 mph (SSW)    
Max Wind Speed 17 mph    
Max Gust Speed 22 mph    
Visibility 7 miles    
Events Rain    
Averages and records for this station are not official NWS values.
T = Trace of Precipitation, MM = Missing Value Source: NWS Daily Summary

Daily Weather History Graph

Daily Weather History Graph

Search for Another Location

Airport or City:

Trip Planner

Search our weather history database for the weather conditions in past years. The results will help you decide how hot, cold, wet, or windy it might be!

Date:

Astronomy

Oct. 31, 2013 Rise Set
Actual Time 8:21 AM EDT 6:36 PM EDT
Civil Twilight 7:51 AM EDT 7:06 PM EDT
Nautical Twilight 7:16 AM EDT 7:40 PM EDT
Astronomical Twilight 6:43 AM EDT 8:14 PM EDT
Moon 5:03 AM EDT (10/31) 4:59 PM EDT (10/31)
Length of Visible Light 11h 15m
Length of Day
10h 15m
Waning Crescent, 10% of the Moon is Illuminated
Oct 31
Waning Crescent
Nov 3
New
Nov 10
First Quarter
Nov 17
Full
Nov 25
Last Quarter

Hourly Weather History & Observations

Time (EDT) Temp. Dew Point Humidity Pressure Visibility Wind Dir Wind Speed Gust Speed Precip Events Conditions
12:15 AM 58.5 °F 53.6 °F 84% 29.80 in 7.0 mi SE 6.9 mph - N/A   Overcast
12:35 AM 57.4 °F 52.7 °F 84% 29.79 in 7.0 mi SE 4.6 mph - N/A   Overcast
12:55 AM 58.1 °F 53.8 °F 86% 29.77 in 7.0 mi SE 5.8 mph - N/A   Overcast
1:15 AM 58.5 °F 54.1 °F 86% 29.77 in 7.0 mi Calm Calm - N/A   Overcast
1:35 AM 57.9 °F 53.8 °F 86% 29.77 in 7.0 mi Calm Calm - N/A   Overcast
1:55 AM 57.2 °F 53.2 °F 87% 29.76 in 7.0 mi SSE 4.6 mph - N/A   Overcast
2:15 AM 58.5 °F 54.5 °F 87% 29.77 in 7.0 mi South 5.8 mph - N/A   Overcast
2:35 AM 58.5 °F 54.5 °F 87% 29.75 in 7.0 mi Calm Calm - N/A   Overcast
2:55 AM 57.2 °F 53.6 °F 88% 29.73 in 5.0 mi ESE 3.5 mph - N/A   Overcast
3:15 AM 57.0 °F 53.4 °F 88% 29.72 in 5.0 mi Calm Calm - N/A   Overcast
3:35 AM 57.2 °F 53.8 °F 88% 29.70 in 5.0 mi SE 3.5 mph - N/A   Overcast
3:55 AM 57.4 °F 54.0 °F 88% 29.68 in 5.0 mi ESE 4.6 mph - N/A   Overcast
4:15 AM 57.0 °F 53.6 °F 88% 29.68 in 5.0 mi Calm Calm - N/A   Overcast
4:35 AM 56.1 °F 52.9 °F 89% 29.66 in 5.0 mi Calm Calm - N/A   Overcast
4:55 AM 57.2 °F 53.8 °F 88% 29.65 in 5.0 mi SE 5.8 mph - N/A   Overcast
5:15 AM 57.2 °F 53.8 °F 88% 29.63 in 5.0 mi SE 4.6 mph - N/A Rain Rain
5:35 AM 58.1 °F 54.9 °F 89% 29.63 in 5.0 mi SE 3.5 mph - N/A   Light Drizzle
5:55 AM 58.1 °F 54.7 °F 88% 29.63 in 5.0 mi SE 3.5 mph - N/A   Overcast
6:15 AM 58.5 °F 55.4 °F 90% 29.62 in 4.0 mi South 3.5 mph - N/A   Overcast
6:35 AM 58.5 °F 55.6 °F 90% 29.62 in 2.0 mi Calm Calm - 0.01 in Rain Heavy Rain
6:55 AM 58.5 °F 55.8 °F 91% 29.62 in 2.5 mi South 6.9 mph - 0.01 in Rain Rain
7:15 AM 58.5 °F 55.8 °F 91% 29.60 in 2.5 mi SSW 8.1 mph - N/A   Light Drizzle
7:35 AM 58.5 °F 55.8 °F 91% 29.60 in 4.0 mi SW 8.1 mph - N/A Rain Light Rain
7:55 AM 61.0 °F 58.3 °F 91% 29.59 in 4.0 mi SW 9.2 mph - N/A   Overcast
8:14 AM 61.0 °F 58.3 °F 91% 29.58 in 5.0 mi SSW 8.1 mph - N/A   Overcast
8:35 AM 61.0 °F 58.3 °F 91% 29.57 in 5.0 mi South 8.1 mph - 0.01 in   Overcast
8:55 AM 61.0 °F 58.3 °F 91% 29.56 in 4.0 mi South 8.1 mph - 0.01 in   Overcast
9:15 AM 61.0 °F 58.3 °F 91% 29.56 in 7.0 mi South 5.8 mph - N/A Rain Light Rain
9:35 AM 61.0 °F 57.7 °F 89% 29.55 in 10.0 mi South 5.8 mph - N/A   Overcast
9:55 AM 61.0 °F 57.9 °F 90% 29.54 in 5.0 mi South 3.5 mph - N/A   Overcast
10:15 AM 61.0 °F 58.1 °F 90% 29.54 in 7.0 mi SW 5.8 mph - N/A   Overcast
10:35 AM 61.0 °F 57.7 °F 89% 29.54 in 10.0 mi SSW 12.7 mph 16.1 mph N/A   Overcast
10:55 AM 61.0 °F 57.6 °F 88% 29.53 in 10.0 mi SSW 12.7 mph - N/A Rain Light Rain
11:15 AM 61.0 °F 57.6 °F 88% 29.52 in 10.0 mi SSW 10.4 mph 16.1 mph N/A Rain Light Rain
11:35 AM 61.0 °F 57.7 °F 89% 29.52 in 10.0 mi SSW 12.7 mph 18.4 mph N/A Rain Light Rain
11:55 AM 61.0 °F 57.9 °F 90% 29.50 in 10.0 mi SSW 11.5 mph - N/A Rain Light Rain
12:15 PM 61.0 °F 58.1 °F 90% 29.49 in 10.0 mi SSW 13.8 mph 18.4 mph N/A Rain Rain
12:35 PM 61.0 °F 58.1 °F 90% 29.47 in 10.0 mi SSW 10.4 mph - N/A Rain Rain
12:55 PM 62.1 °F 58.8 °F 89% 29.45 in 10.0 mi South 9.2 mph - N/A Rain Light Rain
1:15 PM 62.2 °F 59.0 °F 89% 29.43 in 10.0 mi South 8.1 mph - N/A Rain Light Rain
1:35 PM 62.2 °F 59.0 °F 89% 29.41 in 10.0 mi South 9.2 mph - N/A Rain Light Rain
1:55 PM 62.2 °F 59.0 °F 89% 29.39 in 10.0 mi South 11.5 mph - N/A   Light Drizzle
2:15 PM 62.2 °F 59.0 °F 89% 29.39 in 10.0 mi South 9.2 mph 16.1 mph N/A Rain Rain
2:35 PM 62.2 °F 59.0 °F 89% 29.37 in 10.0 mi SSW 17.3 mph 21.9 mph 0.01 in Rain Light Rain
2:54 PM 62.2 °F 59.0 °F 89% 29.36 in 7.0 mi South 13.8 mph 21.9 mph 0.01 in Rain Light Rain
3:15 PM 62.1 °F 59.0 °F 90% 29.35 in 7.0 mi South 17.3 mph 21.9 mph N/A Rain Light Rain
3:35 PM 61.5 °F 58.3 °F 89% 29.34 in 7.0 mi South 12.7 mph - N/A Rain Light Rain
3:54 PM 61.0 °F 57.7 °F 89% 29.33 in 7.0 mi SSW 11.5 mph - N/A Rain Rain
4:15 PM 61.0 °F 57.7 °F 89% 29.31 in 7.0 mi SSW 9.2 mph 17.3 mph N/A Rain Rain
4:35 PM 61.0 °F 58.1 °F 90% 29.30 in 7.0 mi SSW 12.7 mph 18.4 mph N/A Rain Rain
4:55 PM 61.0 °F 58.1 °F 90% 29.29 in 7.0 mi SSW 10.4 mph 16.1 mph 0.01 in Rain Light Rain
5:15 PM 61.0 °F 58.1 °F 90% 29.28 in 4.0 mi SSW 12.7 mph 17.3 mph N/A Rain Rain
5:35 PM 61.0 °F 58.1 °F 90% 29.26 in 5.0 mi SSW 10.4 mph - N/A Rain Light Rain
5:55 PM 61.0 °F 58.1 °F 90% 29.25 in 5.0 mi SSW 10.4 mph 16.1 mph N/A Rain Rain
6:15 PM 61.0 °F 58.1 °F 90% 29.24 in 7.0 mi SSW 10.4 mph - 0.01 in Rain Rain
6:34 PM 59.4 °F 56.5 °F 90% 29.23 in 10.0 mi SSW 11.5 mph - 0.01 in Rain Light Rain
6:55 PM 58.6 °F 55.8 °F 90% 29.22 in 7.0 mi SSW 9.2 mph - 0.01 in Rain Rain
7:15 PM 59.0 °F 56.3 °F 91% 29.21 in 5.0 mi SW 10.4 mph - 0.01 in Rain Rain
7:34 PM 58.5 °F 55.6 °F 90% 29.19 in 5.0 mi SW 6.9 mph 10.4 mph 0.01 in Rain Heavy Rain
7:55 PM 58.5 °F 55.6 °F 90% 29.19 in 5.0 mi SW 8.1 mph - 0.01 in Rain Rain
8:15 PM 58.5 °F 55.6 °F 90% 29.18 in 4.0 mi SW 6.9 mph - 0.01 in Rain Rain
8:34 PM 58.5 °F 55.8 °F 91% 29.17 in 4.0 mi WSW 6.9 mph - 0.02 in Rain Rain
8:55 PM 58.5 °F 55.8 °F 91% 29.15 in 5.0 mi West 5.8 mph - 0.02 in Rain Rain
9:15 PM 57.2 °F 54.5 °F 91% 29.15 in 5.0 mi West 5.8 mph - 0.01 in Rain Light Rain
9:34 PM 55.9 °F 53.2 °F 91% 29.13 in 5.0 mi WNW 5.8 mph - 0.02 in Rain Rain
9:55 PM 55.9 °F 53.6 °F 92% 29.13 in 10.0 mi NW 9.2 mph - 0.03 in   Drizzle
10:15 PM 55.9 °F 53.2 °F 91% 29.13 in 10.0 mi WNW 10.4 mph 16.1 mph 0.01 in   Drizzle
10:35 PM 55.9 °F 53.2 °F 91% 29.12 in 10.0 mi NW 9.2 mph - 0.01 in Rain Light Rain
10:55 PM 55.9 °F 53.2 °F 91% 29.13 in 10.0 mi NW 9.2 mph - 0.02 in Rain Light Rain
11:15 PM 55.9 °F 53.2 °F 91% 29.14 in 10.0 mi NW 9.2 mph 16.1 mph 0.01 in   Overcast
11:35 PM 55.9 °F 53.2 °F 91% 29.13 in 10.0 mi WNW 9.2 mph - 0.01 in   Overcast
11:55 PM 55.9 °F 53.1 °F 90% 29.14 in 10.0 mi West 6.9 mph 16.1 mph 0.02 in   Overcast